Friendship, VA

3:16 PM EST on December 06, 2016 (GMT -0500)
Friendship | | Change Station

Elev 2015 ft 36.73 °N, 81.74 °W | Updated 13 seconds ago

Light Drizzle
Light Drizzle
42.1 °F
Feels Like 42 °F
N
0.0
Wind Variable Wind from NNE
Gusts 1.0 mph

Today
High -- | Low -- °F
--% Chance of Precip.
Yesterday
High -- | Low -- °F
Precip. -- in
Pressure 29.70 in
Visibility 5.0 miles
Clouds Overcast 2700 ft
Windchill 42 °F
Dew Point 41 °F
Humidity 97%
Rainfall 0.93 in
Snow Depth Not available.
7:25 AM 5:10 PM
Waxing Crescent, 44% visible
METAR KVJI 061955Z AUTO 08008KT 5SM -DZ OVC027 07/06 A2970 RMK AO2 P0001 T00650055
Pressure 29.70 in
Visibility 5.0 miles
Clouds Overcast 2700 ft
Windchill 42 °F
Dew Point 41 °F
Humidity 97%
Rainfall 0.93 in
Snow Depth Not available.
7:25 AM 5:10 PM
Waxing Crescent, 44% visible
METAR KVJI 061955Z AUTO 08008KT 5SM -DZ OVC027 07/06 A2970 RMK AO2 P0001 T00650055

10-Day Weather Forecast

Almanac

Astronomy

Dec. 06, 2016 Rise Set
Actual Time
Civil Twilight
Nautical Twilight
Astronomical Twilight
Moon
Length of Visible Light
Length of Day
Tomorrow will be .
, % of the Moon is Illuminated

Today's Extremes

State Highs State Lows

Community

WunderPhotos

Upload Photos

1,956,020 photos uploaded!

WunderBlog® & News

Nearby

Air Quality

  Air Quality AQ Index Pollutant
Not available.

Snow Depth

Station Depth Elevation

Earthquake Activity

City Distance Mag. Time & Date
Minimum magnitude displayed is 2.5.

Coastal Water Temperatures

Place Temperature

Stations

Nearby Weather Stations

Station Location Temp. Windchill Dew Point Humidity Wind Precip. Elev Updated Type
                   

Watches & Warnings

There are currently no watches in effect.